Timeline UpdatesTrip UpdatesNews PostsPvt PostsTravel TipsAdmin PostsConv PostsFollowed PostsChat RequestsBlog PostsPNR Posts

Disclaimer
Search
 
 
Fri Aug 22, 2014 19:18:06 ISTHomeTrainsΣChainsAtlasPNRForumGalleryNewsFAQTripsMembersLoginFeedback
No Recent News for this Train
Other Trains in the News **new
Latest...
⇐ Return Journey: Train# 53043

53044/Rajgir - Howrah Passenger (UnReserved)

Nov 04 2013 (6:59AM)
Change Departure Station:
Change Arrival Station:
Post a Train Travel TipPost a Train Travel Tip **new
Post a Comment/Question/Picture/VideoPost a Comment/Question/Picture/Video
Pantry/Catering
✕ NO Pantry Car
✕ NO Catering
RSA - Rake Sharing
Rake/Coach Composition
Loco
HWH WDM 3A/3D
News    PNR    Forum    Time-Table    Availability    Fare Chart    Map    Arr/Dep History    Trips    Gallery    ΣChains    X/O    Timeline    
Travel Time: 23h 30m    72 halts    Distance: 657 km    Avg Speed: 27 km/hr
Type: Passenger
Zone: ER/Eastern
Departs @ 12:40 (Avg 2h 1m late)
Platform# ???
SMTWTFS
Rajgir/RGD 
Arrives @ 12:10 +1 night (Avg 4h 13m late)
Platform# 1
SMTWTFS
Kolkata Howrah Junction/HWH 

72 halts. 157 intermediate Stations between Rajgir and Kolkata Howrah Junction

Show ALL intermediate Stations  Show Old Time-Table

#CodeStation NameX/OArrivesAvgDepartsAvgHaltPFDay#KmSpeedElevZoneAddress
1RGD»Rajgir (3)»  -12:40+2:01--10.03871mECRRajgir, Bihar
2NLDNalanda (2)  12:58+2:4612:59+3:111m--111.34063mECRNational Highway 82, Bihar
3BEHSBihar Sharif (2)  13:18+2:4213:23+2:455m--123.83656mECR06112-222306, Bihar
4WENAWena (2)  13:46+2:5613:47+3:081m--137.8947mECRWena, Bihar
5HRTHarnaut (3)X  14:21+2:4714:28+2:587m--142.95349mECRHarnaut, Bihar
6BKPBakhtiyarpur Junction (5)XO  14:40+2:1615:10+2:4230m--153.66851mECRPatna, Bihar
7ATLAthmal Gola (2)  15:18+4:0215:19+4:031m--162.75052mECRPatna, Bihar
8BARHBarh (3)X  15:30+2:0615:32+2:082m--171.87849mECRBarh, Bihar
9PHKPunarakh (2)  15:40+4:1315:41+4:141m--182.22951mECRPunarakh, Bihar
10MORMor (2)XO  15:58+4:1116:27+3:4829m--190.54846mECRMor, Bihar
11MKAMokama Junction (4)  16:36+3:0116:40+2:594m--197.75648mECRPatna, Bihar
12HTZHathidah Junction (2)X  16:49+3:0716:51+3:072m11106.14650mECRMusahari, Bihar
13RDUMRampur Dumra (3)O  16:56+3:3316:57+3:361m--1109.93746mECRNational Highway 80, Bihar
14BRYABarhiya (3)  17:06+2:1917:08+2:192m--1115.52247mECRBarahiya, Bihar
15MKBMankatha  17:34+3:5017:40+3:576m--1124.93047mECRNational Highway 80, Bihar
16LKRLuckeesarai Junction (2)X  17:51+3:5717:53+3:572m--1130.51252mECRLakhisarai, Bihar
17KIULKiul Junction (5)X  18:00+1:5418:25+1:5125m--1131.93653mECRDist. Lakhisarai, Bihar
18DNREDhanauri  18:35+3:5918:37+4:012m--1137.94948mERNational Highway 80, Bihar
19URENUrenX  18:43+4:0318:45+4:052m--1142.85845mERUren, Bihar
20KJHKajra (2)  18:50+4:0618:51+4:071m--1147.66250mERLakhisarai District, Bihar
21AHAAbhaipur (2)X  18:58+4:1318:59+4:141m--1154.94852mERAbhaipur, Bihar
22MSDNMasudan (2)  19:04+4:1519:05+4:151m--1158.96045mERMasudan, Bihar
23DRHDharhara (2)  19:11+4:1519:12+4:161m--1164.91855mERDharhara, Bihar
24DRTPDasharathpur (2)  19:30+4:0619:31+4:061m--1170.33248mERDharhara, Bihar
25JMPJamalpur Junction (4)  19:43+2:2119:58+2:2115m11176.74259mERJamalpur 06344-243101, Bihar
26RPURRatanpur (2)  20:07+3:4220:08+3:421m--1183.05846mERRatanpur Railway Station, Bihar
27BUPBariarpur (3)  20:13+4:0820:14+4:141m--1187.81142mERMunger, Bihar
28KPRDKalyanpur Road (3)  20:21+4:1420:22+4:141m--1189.11040mERMunger, Bihar
29GNNAGangani (2)  20:29+4:1320:30+4:131m--1190.313338mERGangania, Bihar
30SGGSultanGanj (3)  20:37+3:4120:40+3:423m--1205.85042mERSultanganj, Bihar
31AKNAkbarnagar (3)  20:52+4:1520:53+4:161m--1215.84439mERTilakpur, Bihar
32NATNathnagar (2)  21:01+4:1621:02+4:181m--1226.04048mERBhagalpur, Bihar
33BGPBhagalpur Junction (6)X  21:09+2:3421:19+2:3810m--1230.75049mERBhagalpur, Bihar
34SBOSabaur (3)  21:28+4:3621:29+4:451m--1238.24442mERSabour, Bihar
35LMMLailakh Mamalkha (2)  21:38+4:4721:39+4:501m--1244.95836mERLailakh Mamlkha, Bihar
36GGAGhoga (2)  21:45+4:5421:47+4:592m--1250.76942mERGhoga, Bihar
37EKCEkchari (1)  21:52+5:0221:53+5:021m11256.45237mERNational Highway 80, Bihar
38CLGKahalgaon (2)  21:58+5:0722:00+5:172m11260.84944mERBhagalpur, Bihar
39SVRPShivanarayanpur (2)X  22:14+4:4622:38+4:3324m--1272.24847mERShivanarayanpur, Bihar
40PPTPirpainti (2)  22:49+4:3622:51+4:472m--1281.15653mERBhagalpur, Bihar
41MZCMirza Cheuki (3)X  23:00+4:4823:06+4:466m31289.62638mERBihar, Bihar
42SBGSahibganj Junction (3)X  23:41+4:4123:59+4:4518m11304.75438mERSahibganj, Jharkhand
43SLJSakrigali Junction (3)X  00:08+4:4800:09+4:511m--2312.75045mERSakrigali, Jharkhand
44MJPMaharajpur (2)  00:16+4:5500:17+5:041m--2318.67134mERMoharajpur, Jharkhand
45TLJTaljhari  00:27+5:1600:28+5:221m--2330.56538mERTaljhari, Jharkhand
46KXEKalian Chak  00:33+5:2600:34+5:261m--2335.98145mERKalian Chak, Jharkhand
47TPHTinpahar Junction (3)  00:39+5:2700:42+5:263m22342.65745mERBamangawan, Jharkhand
48BKLEBakudi (3)  00:51+5:2900:52+5:311m--2351.22665mERBakudi, Jharkhand
49BHWBarharwa Junction (3)X  01:10+5:2401:20+5:2410m22359.14436mERBarharwa, Jharkhand
50GMANGumani (3)X  01:30+5:4301:31+5:441m--2366.56731mERGumani, Jharkhand
51KLPKotalpukur (3)  01:37+6:0201:39+6:012m--2373.13840mERKotalpukur, Jharkhand
52TBBTilbhita (3)XO  01:51+5:4201:55+5:434m--2380.71731mERTilbhita, Jharkhand
53PKRPakur (2)X  02:10+4:2902:11+4:301m22384.94237mERDist:- Pakur, Jharkhand
54RJGRajgram (3)  02:26+5:4202:27+5:431m22395.57032mERRajgram, West Bengal
55MRRMurarai (3)  02:37+5:4502:38+5:481m--2407.17036mERMurarai, West Bengal
56NHTNalhati Junction (4)X  02:52+6:0102:54+6:042m22423.42948mERNalhati, West Bengal
57RPHRampurhat (3)  03:23+4:4503:43+4:4220m--2437.56741mERDIST - Birbhum, West Bengal
58SNTSainthia Junction (4)  04:08+4:4004:13+4:385m42465.54758mERDist - Birbhum, West Bengal
59AMPAhmadpur Junction (3)O  04:30+6:0704:35+6:035m--2478.72846mERDist - Birbhum, West Bengal
60PNEPrantik (3)  05:08+5:0405:09+5:041m--2494.05148mERPrantik, West Bengal
61BHPBolpur Shantiniketan (3)  05:14+5:2605:19+5:245m--2498.26059mERBolpur, West Bengal
62BDHBhedia (2)  05:27+5:0105:28+5:031m--2506.25541mERDist - Bardhaman, West Bengal
63GKHGuskara (2)X  05:40+5:0305:41+5:041m12517.16041mERDist - Bardhaman, West Bengal
64BPSBanpas (3)  05:51+5:0505:52+5:061m--2527.21146mERDist - Bardhaman, West Bengal
65KANKhana Junction (5)X  06:45+4:2906:46+4:301m--2536.95642mERDist - Bardhaman, West Bengal
66BWNBarddhaman Junction (8)XO  07:00+5:1807:20+5:1620m--2550.05034mERDist - Barddhaman, West Bengal
67MYMMemari (4)  07:50+4:2008:00+4:1710m--2575.02225mERMemari, West Bengal
68MUGMagra (3)  09:38+3:4309:43+3:495m--2610.4715mERMagra, West Bengal
69BDCBandel Junction (7)  10:44+4:3810:50+4:386m--2617.23214mERdist - HOOGHLY, West Bengal
70CNSChuchura (3)  10:57+4:5010:58+4:501m--2621.03615mERDist - HOOGHLY - 712102, West Bengal
71CGRChandan Nagar (3)  11:03+2:3511:05+5:032m--2624.05316mERDist -HOOGHLY - 712136, West Bengal
72SHESeoraphuli Junction (6)  11:17+2:3411:19+2:342m--2634.63013mERBaidyabati, West Bengal
73SRPSerampore (4)X  11:24+2:3311:28+5:014m--2637.12811mERdist - hooghly, West Bengal
74HWH•Kolkata Howrah Junction (23)•  12:10+4:13-12656.8-10mERHowrah 711101, West Bengal
Scroll to Top
Scroll to Bottom